sensor_id;sensor_type;location;lat;lon;timestamp;P1;durP1;ratioP1;P2;durP2;ratioP2
4353;SDS011;11018;51.258;6.806;2024-01-11T00:00:34;50.78;;;30.15;;
4353;SDS011;11018;51.258;6.806;2024-01-11T00:03:00;49.25;;;30.83;;
4353;SDS011;11018;51.258;6.806;2024-01-11T00:05:25;52.10;;;29.73;;
4353;SDS011;11018;51.258;6.806;2024-01-11T00:07:51;54.13;;;31.27;;
4353;SDS011;11018;51.258;6.806;2024-01-11T00:10:16;49.55;;;29.30;;
4353;SDS011;11018;51.258;6.806;2024-01-11T00:12:42;51.30;;;30.43;;
4353;SDS011;11018;51.258;6.806;2024-01-11T00:15:08;56.40;;;31.30;;
4353;SDS011;11018;51.258;6.806;2024-01-11T00:17:33;49.47;;;31.27;;
4353;SDS011;11018;51.258;6.806;2024-01-11T00:19:59;48.97;;;30.43;;
4353;SDS011;11018;51.258;6.806;2024-01-11T00:22:25;56.35;;;31.60;;
4353;SDS011;11018;51.258;6.806;2024-01-11T00:24:51;52.60;;;31.60;;
4353;SDS011;11018;51.258;6.806;2024-01-11T00:27:16;55.50;;;31.95;;
4353;SDS011;11018;51.258;6.806;2024-01-11T00:29:42;53.00;;;31.37;;
4353;SDS011;11018;51.258;6.806;2024-01-11T00:32:07;53.60;;;31.33;;
4353;SDS011;11018;51.258;6.806;2024-01-11T00:34:33;52.93;;;31.40;;
4353;SDS011;11018;51.258;6.806;2024-01-11T00:37:00;55.73;;;31.13;;
4353;SDS011;11018;51.258;6.806;2024-01-11T00:39:26;53.20;;;31.55;;
4353;SDS011;11018;51.258;6.806;2024-01-11T00:41:51;50.20;;;30.23;;
4353;SDS011;11018;51.258;6.806;2024-01-11T00:44:17;53.73;;;31.47;;
4353;SDS011;11018;51.258;6.806;2024-01-11T00:46:42;51.03;;;30.70;;
4353;SDS011;11018;51.258;6.806;2024-01-11T00:49:08;51.85;;;31.65;;
4353;SDS011;11018;51.258;6.806;2024-01-11T00:51:33;53.47;;;32.70;;
4353;SDS011;11018;51.258;6.806;2024-01-11T00:53:59;57.53;;;33.00;;
4353;SDS011;11018;51.258;6.806;2024-01-11T00:56:25;54.05;;;32.05;;
4353;SDS011;11018;51.258;6.806;2024-01-11T00:58:51;60.83;;;34.27;;
4353;SDS011;11018;51.258;6.806;2024-01-11T01:01:17;52.70;;;32.15;;
4353;SDS011;11018;51.258;6.806;2024-01-11T01:03:43;58.47;;;36.28;;
4353;SDS011;11018;51.258;6.806;2024-01-11T01:06:08;57.50;;;32.90;;
4353;SDS011;11018;51.258;6.806;2024-01-11T01:08:34;53.17;;;32.63;;
4353;SDS011;11018;51.258;6.806;2024-01-11T01:10:59;57.28;;;34.05;;
4353;SDS011;11018;51.258;6.806;2024-01-11T01:13:25;59.00;;;32.07;;
4353;SDS011;11018;51.258;6.806;2024-01-11T01:15:50;59.30;;;34.40;;
4353;SDS011;11018;51.258;6.806;2024-01-11T01:18:16;54.38;;;32.85;;
4353;SDS011;11018;51.258;6.806;2024-01-11T01:20:41;54.30;;;33.35;;
4353;SDS011;11018;51.258;6.806;2024-01-11T01:23:07;55.13;;;33.30;;
4353;SDS011;11018;51.258;6.806;2024-01-11T01:25:33;58.30;;;34.67;;
4353;SDS011;11018;51.258;6.806;2024-01-11T01:27:58;56.75;;;33.88;;
4353;SDS011;11018;51.258;6.806;2024-01-11T01:30:25;57.67;;;33.77;;
4353;SDS011;11018;51.258;6.806;2024-01-11T01:32:51;60.35;;;32.53;;
4353;SDS011;11018;51.258;6.806;2024-01-11T01:35:17;60.67;;;33.70;;
4353;SDS011;11018;51.258;6.806;2024-01-11T01:37:43;57.40;;;33.87;;
4353;SDS011;11018;51.258;6.806;2024-01-11T01:40:08;57.97;;;33.43;;
4353;SDS011;11018;51.258;6.806;2024-01-11T01:42:34;55.80;;;33.47;;
4353;SDS011;11018;51.258;6.806;2024-01-11T01:45:00;62.63;;;34.93;;
4353;SDS011;11018;51.258;6.806;2024-01-11T01:47:25;57.63;;;33.60;;
4353;SDS011;11018;51.258;6.806;2024-01-11T01:49:52;54.58;;;33.20;;
4353;SDS011;11018;51.258;6.806;2024-01-11T01:52:20;60.83;;;33.77;;
4353;SDS011;11018;51.258;6.806;2024-01-11T01:54:47;57.03;;;34.28;;
4353;SDS011;11018;51.258;6.806;2024-01-11T01:57:14;55.47;;;33.25;;
4353;SDS011;11018;51.258;6.806;2024-01-11T01:59:43;56.33;;;33.10;;
4353;SDS011;11018;51.258;6.806;2024-01-11T02:02:10;57.22;;;33.15;;
4353;SDS011;11018;51.258;6.806;2024-01-11T02:04:37;56.78;;;33.50;;
4353;SDS011;11018;51.258;6.806;2024-01-11T02:07:03;57.15;;;33.83;;
4353;SDS011;11018;51.258;6.806;2024-01-11T02:09:31;56.50;;;34.15;;
4353;SDS011;11018;51.258;6.806;2024-01-11T02:11:57;56.38;;;34.15;;
4353;SDS011;11018;51.258;6.806;2024-01-11T02:14:23;57.28;;;34.30;;
4353;SDS011;11018;51.258;6.806;2024-01-11T02:16:50;54.60;;;33.47;;
4353;SDS011;11018;51.258;6.806;2024-01-11T02:19:16;58.40;;;36.03;;
4353;SDS011;11018;51.258;6.806;2024-01-11T02:21:44;60.35;;;35.92;;
4353;SDS011;11018;51.258;6.806;2024-01-11T02:24:13;61.38;;;34.53;;
4353;SDS011;11018;51.258;6.806;2024-01-11T02:26:57;58.27;;;34.30;;
4353;SDS011;11018;51.258;6.806;2024-01-11T02:29:27;62.30;;;34.65;;
4353;SDS011;11018;51.258;6.806;2024-01-11T02:31:54;64.32;;;37.55;;
4353;SDS011;11018;51.258;6.806;2024-01-11T02:34:20;57.65;;;34.15;;
4353;SDS011;11018;51.258;6.806;2024-01-11T02:36:46;58.55;;;33.70;;
4353;SDS011;11018;51.258;6.806;2024-01-11T02:39:12;64.75;;;36.38;;
4353;SDS011;11018;51.258;6.806;2024-01-11T02:41:40;62.47;;;34.50;;
4353;SDS011;11018;51.258;6.806;2024-01-11T02:44:06;66.97;;;36.42;;
4353;SDS011;11018;51.258;6.806;2024-01-11T02:46:32;64.22;;;35.17;;
4353;SDS011;11018;51.258;6.806;2024-01-11T02:48:57;59.15;;;35.33;;
4353;SDS011;11018;51.258;6.806;2024-01-11T02:51:23;61.73;;;35.43;;
4353;SDS011;11018;51.258;6.806;2024-01-11T02:53:48;63.53;;;36.00;;
4353;SDS011;11018;51.258;6.806;2024-01-11T02:56:14;59.42;;;35.47;;
4353;SDS011;11018;51.258;6.806;2024-01-11T02:58:39;65.37;;;34.90;;
4353;SDS011;11018;51.258;6.806;2024-01-11T03:01:05;60.00;;;36.13;;
4353;SDS011;11018;51.258;6.806;2024-01-11T03:03:31;63.08;;;36.65;;
4353;SDS011;11018;51.258;6.806;2024-01-11T03:05:56;58.93;;;34.30;;
4353;SDS011;11018;51.258;6.806;2024-01-11T03:08:22;62.60;;;36.53;;
4353;SDS011;11018;51.258;6.806;2024-01-11T03:10:47;61.35;;;34.53;;
4353;SDS011;11018;51.258;6.806;2024-01-11T03:13:13;66.60;;;40.00;;
4353;SDS011;11018;51.258;6.806;2024-01-11T03:15:38;66.70;;;38.57;;
4353;SDS011;11018;51.258;6.806;2024-01-11T03:18:04;61.63;;;35.42;;
4353;SDS011;11018;51.258;6.806;2024-01-11T03:20:29;58.47;;;35.20;;
4353;SDS011;11018;51.258;6.806;2024-01-11T03:22:55;58.83;;;35.10;;
4353;SDS011;11018;51.258;6.806;2024-01-11T03:25:21;64.78;;;36.10;;
4353;SDS011;11018;51.258;6.806;2024-01-11T03:27:46;59.00;;;36.13;;
4353;SDS011;11018;51.258;6.806;2024-01-11T03:30:12;62.23;;;36.93;;
4353;SDS011;11018;51.258;6.806;2024-01-11T03:32:38;60.33;;;36.33;;
4353;SDS011;11018;51.258;6.806;2024-01-11T03:35:04;67.60;;;38.00;;
4353;SDS011;11018;51.258;6.806;2024-01-11T03:37:32;59.85;;;35.47;;
4353;SDS011;11018;51.258;6.806;2024-01-11T03:39:57;68.75;;;38.47;;
4353;SDS011;11018;51.258;6.806;2024-01-11T03:42:23;65.23;;;37.87;;
4353;SDS011;11018;51.258;6.806;2024-01-11T03:44:49;64.78;;;36.83;;
4353;SDS011;11018;51.258;6.806;2024-01-11T03:47:15;63.42;;;38.13;;
4353;SDS011;11018;51.258;6.806;2024-01-11T03:49:40;66.80;;;38.25;;
4353;SDS011;11018;51.258;6.806;2024-01-11T03:52:06;67.50;;;38.07;;
4353;SDS011;11018;51.258;6.806;2024-01-11T03:54:31;63.80;;;37.43;;
4353;SDS011;11018;51.258;6.806;2024-01-11T03:56:57;68.68;;;37.60;;
4353;SDS011;11018;51.258;6.806;2024-01-11T03:59:22;64.47;;;38.20;;
4353;SDS011;11018;51.258;6.806;2024-01-11T04:01:48;67.07;;;38.97;;
4353;SDS011;11018;51.258;6.806;2024-01-11T04:04:13;65.15;;;39.38;;
4353;SDS011;11018;51.258;6.806;2024-01-11T04:06:39;64.27;;;37.60;;
4353;SDS011;11018;51.258;6.806;2024-01-11T04:09:05;66.70;;;38.50;;
4353;SDS011;11018;51.258;6.806;2024-01-11T04:11:30;62.35;;;37.35;;
4353;SDS011;11018;51.258;6.806;2024-01-11T04:13:56;66.77;;;37.63;;
4353;SDS011;11018;51.258;6.806;2024-01-11T04:16:21;66.37;;;38.00;;
4353;SDS011;11018;51.258;6.806;2024-01-11T04:18:47;66.80;;;38.08;;
4353;SDS011;11018;51.258;6.806;2024-01-11T04:21:22;72.97;;;40.70;;
4353;SDS011;11018;51.258;6.806;2024-01-11T04:23:49;68.43;;;39.07;;
4353;SDS011;11018;51.258;6.806;2024-01-11T04:26:15;67.32;;;39.83;;
4353;SDS011;11018;51.258;6.806;2024-01-11T04:28:41;70.95;;;39.95;;
4353;SDS011;11018;51.258;6.806;2024-01-11T04:31:10;75.30;;;41.38;;
4353;SDS011;11018;51.258;6.806;2024-01-11T04:33:35;67.50;;;39.38;;
4353;SDS011;11018;51.258;6.806;2024-01-11T04:36:04;67.25;;;38.45;;
4353;SDS011;11018;51.258;6.806;2024-01-11T04:38:31;64.70;;;39.40;;
4353;SDS011;11018;51.258;6.806;2024-01-11T04:40:56;63.50;;;37.30;;
4353;SDS011;11018;51.258;6.806;2024-01-11T04:43:22;65.60;;;38.27;;
4353;SDS011;11018;51.258;6.806;2024-01-11T04:45:47;66.05;;;38.72;;
4353;SDS011;11018;51.258;6.806;2024-01-11T04:48:13;69.65;;;40.50;;
4353;SDS011;11018;51.258;6.806;2024-01-11T04:50:38;66.83;;;38.13;;
4353;SDS011;11018;51.258;6.806;2024-01-11T04:53:04;65.20;;;38.70;;
4353;SDS011;11018;51.258;6.806;2024-01-11T04:55:29;68.03;;;39.60;;
4353;SDS011;11018;51.258;6.806;2024-01-11T04:57:55;71.03;;;39.37;;
4353;SDS011;11018;51.258;6.806;2024-01-11T05:00:20;68.85;;;39.90;;
4353;SDS011;11018;51.258;6.806;2024-01-11T05:02:46;69.13;;;40.35;;
4353;SDS011;11018;51.258;6.806;2024-01-11T05:05:12;64.00;;;38.73;;
4353;SDS011;11018;51.258;6.806;2024-01-11T05:07:37;68.47;;;39.35;;
4353;SDS011;11018;51.258;6.806;2024-01-11T05:10:03;68.00;;;40.77;;
4353;SDS011;11018;51.258;6.806;2024-01-11T05:12:29;67.65;;;39.60;;
4353;SDS011;11018;51.258;6.806;2024-01-11T05:14:54;71.40;;;41.93;;
4353;SDS011;11018;51.258;6.806;2024-01-11T05:17:20;71.20;;;40.80;;
4353;SDS011;11018;51.258;6.806;2024-01-11T05:19:45;72.53;;;41.38;;
4353;SDS011;11018;51.258;6.806;2024-01-11T05:22:11;67.53;;;41.40;;
4353;SDS011;11018;51.258;6.806;2024-01-11T05:24:36;71.53;;;40.30;;
4353;SDS011;11018;51.258;6.806;2024-01-11T05:27:02;72.07;;;42.13;;
4353;SDS011;11018;51.258;6.806;2024-01-11T05:29:28;75.50;;;43.17;;
4353;SDS011;11018;51.258;6.806;2024-01-11T05:31:53;71.43;;;41.20;;
4353;SDS011;11018;51.258;6.806;2024-01-11T05:34:19;78.65;;;42.92;;
4353;SDS011;11018;51.258;6.806;2024-01-11T05:36:44;78.13;;;43.37;;
4353;SDS011;11018;51.258;6.806;2024-01-11T05:39:10;69.60;;;40.90;;
4353;SDS011;11018;51.258;6.806;2024-01-11T05:41:35;72.97;;;40.90;;
4353;SDS011;11018;51.258;6.806;2024-01-11T05:44:01;70.73;;;40.80;;
4353;SDS011;11018;51.258;6.806;2024-01-11T05:46:26;72.40;;;42.10;;
4353;SDS011;11018;51.258;6.806;2024-01-11T05:48:52;72.40;;;41.30;;
4353;SDS011;11018;51.258;6.806;2024-01-11T05:51:17;75.72;;;42.45;;
4353;SDS011;11018;51.258;6.806;2024-01-11T05:53:43;69.90;;;41.27;;
4353;SDS011;11018;51.258;6.806;2024-01-11T05:56:09;71.37;;;41.47;;
4353;SDS011;11018;51.258;6.806;2024-01-11T05:58:35;72.47;;;41.50;;
4353;SDS011;11018;51.258;6.806;2024-01-11T06:01:02;67.63;;;39.50;;
4353;SDS011;11018;51.258;6.806;2024-01-11T06:03:28;71.78;;;40.60;;
4353;SDS011;11018;51.258;6.806;2024-01-11T06:05:54;74.00;;;41.37;;
4353;SDS011;11018;51.258;6.806;2024-01-11T06:08:20;76.80;;;43.35;;
4353;SDS011;11018;51.258;6.806;2024-01-11T06:10:46;73.63;;;41.93;;
4353;SDS011;11018;51.258;6.806;2024-01-11T06:13:11;71.30;;;41.13;;
4353;SDS011;11018;51.258;6.806;2024-01-11T06:15:37;75.90;;;42.27;;
4353;SDS011;11018;51.258;6.806;2024-01-11T06:18:02;75.93;;;41.50;;
4353;SDS011;11018;51.258;6.806;2024-01-11T06:20:29;75.25;;;42.30;;
4353;SDS011;11018;51.258;6.806;2024-01-11T06:22:55;71.63;;;41.40;;
4353;SDS011;11018;51.258;6.806;2024-01-11T06:25:21;74.10;;;40.75;;
4353;SDS011;11018;51.258;6.806;2024-01-11T06:27:46;72.10;;;41.83;;
4353;SDS011;11018;51.258;6.806;2024-01-11T06:30:12;74.45;;;43.00;;
4353;SDS011;11018;51.258;6.806;2024-01-11T06:32:38;73.20;;;42.25;;
4353;SDS011;11018;51.258;6.806;2024-01-11T06:35:04;75.20;;;42.23;;
4353;SDS011;11018;51.258;6.806;2024-01-11T06:37:30;78.65;;;42.70;;
4353;SDS011;11018;51.258;6.806;2024-01-11T06:39:56;72.00;;;43.50;;
4353;SDS011;11018;51.258;6.806;2024-01-11T06:42:21;73.53;;;42.53;;
4353;SDS011;11018;51.258;6.806;2024-01-11T06:44:47;74.28;;;42.58;;
4353;SDS011;11018;51.258;6.806;2024-01-11T06:47:13;73.00;;;41.53;;
4353;SDS011;11018;51.258;6.806;2024-01-11T06:49:39;75.18;;;43.28;;
4353;SDS011;11018;51.258;6.806;2024-01-11T06:52:06;74.03;;;42.88;;
4353;SDS011;11018;51.258;6.806;2024-01-11T06:54:31;75.88;;;42.58;;
4353;SDS011;11018;51.258;6.806;2024-01-11T06:56:57;74.38;;;42.78;;
4353;SDS011;11018;51.258;6.806;2024-01-11T06:59:23;76.40;;;43.42;;
4353;SDS011;11018;51.258;6.806;2024-01-11T07:01:48;78.07;;;44.90;;
4353;SDS011;11018;51.258;6.806;2024-01-11T07:04:14;73.95;;;42.25;;
4353;SDS011;11018;51.258;6.806;2024-01-11T07:06:40;80.93;;;44.35;;
4353;SDS011;11018;51.258;6.806;2024-01-11T07:09:05;77.55;;;45.28;;
4353;SDS011;11018;51.258;6.806;2024-01-11T07:11:31;77.70;;;43.77;;
4353;SDS011;11018;51.258;6.806;2024-01-11T07:13:57;79.22;;;43.95;;
4353;SDS011;11018;51.258;6.806;2024-01-11T07:16:23;78.45;;;43.90;;
4353;SDS011;11018;51.258;6.806;2024-01-11T07:18:48;78.32;;;44.35;;
4353;SDS011;11018;51.258;6.806;2024-01-11T07:21:20;72.65;;;42.70;;
4353;SDS011;11018;51.258;6.806;2024-01-11T07:23:56;74.35;;;44.53;;
4353;SDS011;11018;51.258;6.806;2024-01-11T07:26:24;82.57;;;44.58;;
4353;SDS011;11018;51.258;6.806;2024-01-11T07:28:50;78.13;;;43.50;;
4353;SDS011;11018;51.258;6.806;2024-01-11T07:31:16;75.18;;;42.45;;
4353;SDS011;11018;51.258;6.806;2024-01-11T07:33:42;79.40;;;43.83;;
4353;SDS011;11018;51.258;6.806;2024-01-11T07:36:08;85.88;;;47.00;;
4353;SDS011;11018;51.258;6.806;2024-01-11T07:38:34;83.93;;;45.67;;
4353;SDS011;11018;51.258;6.806;2024-01-11T07:41:00;75.07;;;44.20;;
4353;SDS011;11018;51.258;6.806;2024-01-11T07:43:26;77.55;;;42.78;;
4353;SDS011;11018;51.258;6.806;2024-01-11T07:45:53;79.13;;;44.35;;
4353;SDS011;11018;51.258;6.806;2024-01-11T07:48:21;78.32;;;44.38;;
4353;SDS011;11018;51.258;6.806;2024-01-11T07:50:48;78.20;;;44.05;;
4353;SDS011;11018;51.258;6.806;2024-01-11T07:53:13;79.90;;;44.38;;
4353;SDS011;11018;51.258;6.806;2024-01-11T07:55:39;82.35;;;45.13;;
4353;SDS011;11018;51.258;6.806;2024-01-11T07:58:05;78.28;;;44.42;;
4353;SDS011;11018;51.258;6.806;2024-01-11T08:00:31;78.47;;;44.63;;
4353;SDS011;11018;51.258;6.806;2024-01-11T08:02:57;70.00;;;42.67;;
4353;SDS011;11018;51.258;6.806;2024-01-11T08:05:23;75.30;;;43.43;;
4353;SDS011;11018;51.258;6.806;2024-01-11T08:07:48;87.05;;;49.78;;
4353;SDS011;11018;51.258;6.806;2024-01-11T08:10:14;89.32;;;49.65;;
4353;SDS011;11018;51.258;6.806;2024-01-11T08:12:40;86.63;;;49.15;;
4353;SDS011;11018;51.258;6.806;2024-01-11T08:15:05;76.37;;;44.93;;
4353;SDS011;11018;51.258;6.806;2024-01-11T08:17:31;84.18;;;47.10;;
4353;SDS011;11018;51.258;6.806;2024-01-11T08:19:57;77.43;;;45.37;;
4353;SDS011;11018;51.258;6.806;2024-01-11T08:22:23;73.20;;;43.60;;
4353;SDS011;11018;51.258;6.806;2024-01-11T08:24:48;79.07;;;46.08;;
4353;SDS011;11018;51.258;6.806;2024-01-11T08:27:15;75.03;;;45.05;;
4353;SDS011;11018;51.258;6.806;2024-01-11T08:29:42;73.40;;;43.70;;
4353;SDS011;11018;51.258;6.806;2024-01-11T08:32:08;74.55;;;43.13;;
4353;SDS011;11018;51.258;6.806;2024-01-11T08:34:33;74.90;;;43.37;;
4353;SDS011;11018;51.258;6.806;2024-01-11T08:36:59;80.13;;;44.05;;
4353;SDS011;11018;51.258;6.806;2024-01-11T08:39:25;87.37;;;48.43;;
4353;SDS011;11018;51.258;6.806;2024-01-11T08:41:50;89.17;;;50.30;;
4353;SDS011;11018;51.258;6.806;2024-01-11T08:44:17;80.35;;;46.72;;
4353;SDS011;11018;51.258;6.806;2024-01-11T08:46:43;78.40;;;43.30;;
4353;SDS011;11018;51.258;6.806;2024-01-11T08:49:09;73.30;;;42.60;;
4353;SDS011;11018;51.258;6.806;2024-01-11T08:51:34;77.73;;;43.83;;
4353;SDS011;11018;51.258;6.806;2024-01-11T08:54:00;73.47;;;42.28;;
4353;SDS011;11018;51.258;6.806;2024-01-11T08:56:26;76.17;;;43.53;;
4353;SDS011;11018;51.258;6.806;2024-01-11T08:58:52;72.82;;;43.03;;
4353;SDS011;11018;51.258;6.806;2024-01-11T09:01:18;78.27;;;44.93;;
4353;SDS011;11018;51.258;6.806;2024-01-11T09:03:44;80.18;;;44.60;;
4353;SDS011;11018;51.258;6.806;2024-01-11T09:06:09;79.40;;;43.80;;
4353;SDS011;11018;51.258;6.806;2024-01-11T09:08:36;72.65;;;43.10;;
4353;SDS011;11018;51.258;6.806;2024-01-11T09:11:01;72.80;;;43.53;;
4353;SDS011;11018;51.258;6.806;2024-01-11T09:13:28;73.65;;;43.10;;
4353;SDS011;11018;51.258;6.806;2024-01-11T09:15:54;90.72;;;48.00;;
4353;SDS011;11018;51.258;6.806;2024-01-11T09:18:20;73.05;;;42.67;;
4353;SDS011;11018;51.258;6.806;2024-01-11T09:20:45;81.97;;;44.53;;
4353;SDS011;11018;51.258;6.806;2024-01-11T09:23:12;77.00;;;44.42;;
4353;SDS011;11018;51.258;6.806;2024-01-11T09:25:38;70.68;;;42.85;;
4353;SDS011;11018;51.258;6.806;2024-01-11T09:28:03;78.20;;;44.20;;
4353;SDS011;11018;51.258;6.806;2024-01-11T09:30:29;76.22;;;43.55;;
4353;SDS011;11018;51.258;6.806;2024-01-11T09:32:55;70.25;;;42.72;;
4353;SDS011;11018;51.258;6.806;2024-01-11T09:35:21;76.73;;;44.63;;
4353;SDS011;11018;51.258;6.806;2024-01-11T09:37:48;76.27;;;43.37;;
4353;SDS011;11018;51.258;6.806;2024-01-11T09:40:14;76.28;;;43.33;;
4353;SDS011;11018;51.258;6.806;2024-01-11T09:42:40;78.10;;;43.70;;
4353;SDS011;11018;51.258;6.806;2024-01-11T09:45:15;79.57;;;42.93;;
4353;SDS011;11018;51.258;6.806;2024-01-11T09:47:42;75.25;;;44.00;;
4353;SDS011;11018;51.258;6.806;2024-01-11T09:50:10;73.15;;;43.00;;
4353;SDS011;11018;51.258;6.806;2024-01-11T09:52:42;73.90;;;43.58;;
4353;SDS011;11018;51.258;6.806;2024-01-11T09:55:12;77.80;;;44.83;;
4353;SDS011;11018;51.258;6.806;2024-01-11T09:57:38;73.03;;;43.20;;
4353;SDS011;11018;51.258;6.806;2024-01-11T10:00:09;73.60;;;43.25;;
4353;SDS011;11018;51.258;6.806;2024-01-11T10:02:37;76.28;;;43.72;;
4353;SDS011;11018;51.258;6.806;2024-01-11T10:05:04;78.47;;;43.90;;
4353;SDS011;11018;51.258;6.806;2024-01-11T10:07:30;79.75;;;43.72;;
4353;SDS011;11018;51.258;6.806;2024-01-11T10:09:59;74.13;;;42.38;;
4353;SDS011;11018;51.258;6.806;2024-01-11T10:12:25;77.10;;;43.25;;
4353;SDS011;11018;51.258;6.806;2024-01-11T10:14:52;74.38;;;42.60;;
4353;SDS011;11018;51.258;6.806;2024-01-11T10:17:19;71.50;;;42.55;;
4353;SDS011;11018;51.258;6.806;2024-01-11T10:19:44;74.55;;;42.92;;
4353;SDS011;11018;51.258;6.806;2024-01-11T10:22:10;68.85;;;41.95;;
4353;SDS011;11018;51.258;6.806;2024-01-11T10:24:42;66.75;;;41.20;;
4353;SDS011;11018;51.258;6.806;2024-01-11T10:27:11;74.32;;;44.08;;
4353;SDS011;11018;51.258;6.806;2024-01-11T10:29:36;70.83;;;43.47;;
4353;SDS011;11018;51.258;6.806;2024-01-11T10:32:05;75.15;;;43.03;;
4353;SDS011;11018;51.258;6.806;2024-01-11T10:34:31;71.53;;;42.88;;
4353;SDS011;11018;51.258;6.806;2024-01-11T10:36:57;70.47;;;42.45;;
4353;SDS011;11018;51.258;6.806;2024-01-11T10:39:24;70.27;;;41.80;;
4353;SDS011;11018;51.258;6.806;2024-01-11T10:41:51;72.80;;;42.30;;
4353;SDS011;11018;51.258;6.806;2024-01-11T10:44:20;75.80;;;42.75;;
4353;SDS011;11018;51.258;6.806;2024-01-11T10:46:47;76.85;;;42.92;;
4353;SDS011;11018;51.258;6.806;2024-01-11T10:49:18;73.78;;;42.13;;
4353;SDS011;11018;51.258;6.806;2024-01-11T10:52:02;73.83;;;41.50;;
4353;SDS011;11018;51.258;6.806;2024-01-11T10:54:31;72.57;;;42.63;;
4353;SDS011;11018;51.258;6.806;2024-01-11T10:56:58;71.90;;;40.72;;
4353;SDS011;11018;51.258;6.806;2024-01-11T10:59:25;76.35;;;44.05;;
4353;SDS011;11018;51.258;6.806;2024-01-11T11:01:55;72.00;;;41.80;;
4353;SDS011;11018;51.258;6.806;2024-01-11T11:04:23;74.45;;;42.22;;
4353;SDS011;11018;51.258;6.806;2024-01-11T11:06:54;73.88;;;43.05;;
4353;SDS011;11018;51.258;6.806;2024-01-11T11:09:22;70.57;;;41.08;;
4353;SDS011;11018;51.258;6.806;2024-01-11T11:11:48;71.57;;;40.15;;
4353;SDS011;11018;51.258;6.806;2024-01-11T11:14:14;72.32;;;41.60;;
4353;SDS011;11018;51.258;6.806;2024-01-11T11:16:40;73.60;;;40.33;;
4353;SDS011;11018;51.258;6.806;2024-01-11T11:19:07;70.90;;;40.78;;
4353;SDS011;11018;51.258;6.806;2024-01-11T11:21:41;69.77;;;40.40;;
4353;SDS011;11018;51.258;6.806;2024-01-11T11:24:07;68.57;;;40.60;;
4353;SDS011;11018;51.258;6.806;2024-01-11T11:26:33;73.55;;;42.45;;
4353;SDS011;11018;51.258;6.806;2024-01-11T11:29:00;76.37;;;41.03;;
4353;SDS011;11018;51.258;6.806;2024-01-11T11:34:01;71.20;;;41.25;;
4353;SDS011;11018;51.258;6.806;2024-01-11T11:36:29;71.93;;;39.95;;
4353;SDS011;11018;51.258;6.806;2024-01-11T11:38:55;68.88;;;38.83;;
4353;SDS011;11018;51.258;6.806;2024-01-11T11:41:25;66.07;;;37.22;;
4353;SDS011;11018;51.258;6.806;2024-01-11T11:43:51;58.50;;;35.88;;
4353;SDS011;11018;51.258;6.806;2024-01-11T11:46:17;58.83;;;34.30;;
4353;SDS011;11018;51.258;6.806;2024-01-11T11:48:47;57.63;;;34.20;;
4353;SDS011;11018;51.258;6.806;2024-01-11T11:51:18;54.63;;;32.95;;
4353;SDS011;11018;51.258;6.806;2024-01-11T11:53:45;55.45;;;31.75;;
4353;SDS011;11018;51.258;6.806;2024-01-11T11:56:12;53.28;;;29.70;;
4353;SDS011;11018;51.258;6.806;2024-01-11T11:58:41;54.38;;;30.77;;
4353;SDS011;11018;51.258;6.806;2024-01-11T12:01:08;53.45;;;30.15;;
4353;SDS011;11018;51.258;6.806;2024-01-11T12:03:38;52.13;;;29.08;;
4353;SDS011;11018;51.258;6.806;2024-01-11T12:06:06;52.60;;;29.33;;
4353;SDS011;11018;51.258;6.806;2024-01-11T12:08:35;52.58;;;28.60;;
4353;SDS011;11018;51.258;6.806;2024-01-11T12:11:02;56.58;;;29.73;;
4353;SDS011;11018;51.258;6.806;2024-01-11T12:13:28;52.35;;;29.98;;
4353;SDS011;11018;51.258;6.806;2024-01-11T12:15:56;54.20;;;30.92;;
4353;SDS011;11018;51.258;6.806;2024-01-11T12:18:21;54.17;;;29.85;;
4353;SDS011;11018;51.258;6.806;2024-01-11T12:20:47;54.42;;;30.13;;
4353;SDS011;11018;51.258;6.806;2024-01-11T12:23:13;61.10;;;31.10;;
4353;SDS011;11018;51.258;6.806;2024-01-11T12:25:42;56.35;;;31.75;;
4353;SDS011;11018;51.258;6.806;2024-01-11T12:28:08;66.13;;;32.75;;
4353;SDS011;11018;51.258;6.806;2024-01-11T12:30:34;58.63;;;32.60;;
4353;SDS011;11018;51.258;6.806;2024-01-11T12:33:00;62.35;;;34.40;;
4353;SDS011;11018;51.258;6.806;2024-01-11T12:35:26;65.30;;;36.13;;
4353;SDS011;11018;51.258;6.806;2024-01-11T12:37:58;64.68;;;36.40;;
4353;SDS011;11018;51.258;6.806;2024-01-11T12:40:27;62.83;;;36.03;;
4353;SDS011;11018;51.258;6.806;2024-01-11T12:42:53;61.80;;;36.20;;
4353;SDS011;11018;51.258;6.806;2024-01-11T12:45:22;63.75;;;34.88;;
4353;SDS011;11018;51.258;6.806;2024-01-11T12:47:51;66.78;;;35.65;;
4353;SDS011;11018;51.258;6.806;2024-01-11T12:50:17;61.83;;;34.72;;
4353;SDS011;11018;51.258;6.806;2024-01-11T12:52:42;61.60;;;34.67;;
4353;SDS011;11018;51.258;6.806;2024-01-11T12:55:17;64.03;;;33.67;;
4353;SDS011;11018;51.258;6.806;2024-01-11T12:57:44;64.47;;;33.17;;
4353;SDS011;11018;51.258;6.806;2024-01-11T13:00:10;55.97;;;31.87;;
4353;SDS011;11018;51.258;6.806;2024-01-11T13:02:37;67.38;;;33.75;;
4353;SDS011;11018;51.258;6.806;2024-01-11T13:05:03;61.85;;;32.42;;
4353;SDS011;11018;51.258;6.806;2024-01-11T13:07:30;58.78;;;31.58;;
4353;SDS011;11018;51.258;6.806;2024-01-11T13:09:55;60.92;;;32.90;;
4353;SDS011;11018;51.258;6.806;2024-01-11T13:12:21;59.67;;;32.35;;
4353;SDS011;11018;51.258;6.806;2024-01-11T13:14:47;64.13;;;32.70;;
4353;SDS011;11018;51.258;6.806;2024-01-11T13:17:13;55.70;;;32.85;;
4353;SDS011;11018;51.258;6.806;2024-01-11T13:19:39;61.53;;;31.63;;
4353;SDS011;11018;51.258;6.806;2024-01-11T13:22:04;53.13;;;30.70;;
4353;SDS011;11018;51.258;6.806;2024-01-11T13:24:30;59.67;;;31.50;;
4353;SDS011;11018;51.258;6.806;2024-01-11T13:26:56;57.67;;;30.20;;
4353;SDS011;11018;51.258;6.806;2024-01-11T13:29:22;61.67;;;31.00;;
4353;SDS011;11018;51.258;6.806;2024-01-11T13:31:47;54.90;;;29.57;;
4353;SDS011;11018;51.258;6.806;2024-01-11T13:34:13;54.55;;;28.33;;
4353;SDS011;11018;51.258;6.806;2024-01-11T13:36:38;54.38;;;28.27;;
4353;SDS011;11018;51.258;6.806;2024-01-11T13:39:04;54.35;;;28.00;;
4353;SDS011;11018;51.258;6.806;2024-01-11T13:41:33;54.75;;;28.83;;
4353;SDS011;11018;51.258;6.806;2024-01-11T13:43:58;54.37;;;29.60;;
4353;SDS011;11018;51.258;6.806;2024-01-11T13:46:24;51.10;;;27.90;;
4353;SDS011;11018;51.258;6.806;2024-01-11T13:48:49;48.90;;;25.80;;
4353;SDS011;11018;51.258;6.806;2024-01-11T13:51:15;50.05;;;26.75;;
4353;SDS011;11018;51.258;6.806;2024-01-11T13:53:41;47.10;;;26.63;;
4353;SDS011;11018;51.258;6.806;2024-01-11T13:56:06;49.83;;;25.47;;
4353;SDS011;11018;51.258;6.806;2024-01-11T13:58:32;48.30;;;26.45;;
4353;SDS011;11018;51.258;6.806;2024-01-11T14:00:57;47.40;;;26.40;;
4353;SDS011;11018;51.258;6.806;2024-01-11T14:03:23;55.85;;;28.02;;
4353;SDS011;11018;51.258;6.806;2024-01-11T14:05:49;54.53;;;26.83;;
4353;SDS011;11018;51.258;6.806;2024-01-11T14:08:15;51.17;;;26.70;;
4353;SDS011;11018;51.258;6.806;2024-01-11T14:10:40;51.70;;;27.50;;
4353;SDS011;11018;51.258;6.806;2024-01-11T14:13:06;52.93;;;27.60;;
4353;SDS011;11018;51.258;6.806;2024-01-11T14:15:31;48.30;;;25.10;;
4353;SDS011;11018;51.258;6.806;2024-01-11T14:17:57;51.17;;;25.90;;
4353;SDS011;11018;51.258;6.806;2024-01-11T14:20:22;53.35;;;27.33;;
4353;SDS011;11018;51.258;6.806;2024-01-11T14:22:49;50.67;;;26.50;;
4353;SDS011;11018;51.258;6.806;2024-01-11T14:25:15;53.38;;;26.35;;
4353;SDS011;11018;51.258;6.806;2024-01-11T14:27:42;52.33;;;26.00;;
4353;SDS011;11018;51.258;6.806;2024-01-11T14:30:09;51.00;;;25.33;;